Nearby METAR Reports

 

KHAO - Hamilton, Ohio, USA
Distance from station: NW 8mi, 14km
Updated: 11/16/2018 5:53am
Overcast
Overcast
 Wind from varies
Wind: varies 6 mph , 9 km/h
Temperature: 30°F , -1°C
Wind Chill: 24°F , -4°C
Dew Point: 27°F , -3°C
Humidity: 86%
Barometer: 30.01 inHg , 1016.3 hPa
Clouds: Overcast
Visibility: 9 miles , 14 km
Cloud details: Overcast 1300 ft
2018/11/16 10:53 KHAO 161053Z AUTO VRB05KT 9SM OVC013 M01/M03 A3001 RMK AO2 SLP167 T10061028
KMWO - Middletown/Hook, Ohio, USA
Distance from station: N 17mi, 27km
Updated: 11/16/2018 6:15am
Overcast
Overcast
 Wind from SW
Wind: SW 13 mph , 20 km/h
Temperature: 32°F , 0°C
Wind Chill: 22°F , -6°C
Dew Point: 28°F , -2°C
Humidity: 87%
Barometer: 30.00 inHg , 1015.9 hPa
Clouds: Overcast
Visibility: 10 miles , 16 km
Cloud details: Overcast 1300 ft
2018/11/16 11:15 KMWO 161115Z AUTO 22011KT 10SM OVC013 00/M02 A3000 RMK AO2 T10051023
KCVG - Covington, Kentucky, USA
Distance from station: SW 22mi, 35km
Updated: 11/16/2018 5:52am
Mist, Overcast
Mist, Overcast
 Wind from SSW
Wind: SSW 9 mph , 15 km/h
Temperature: 30°F , -1°C
Wind Chill: 22°F , -6°C
Dew Point: 28°F , -2°C
Humidity: 93%
Barometer: 29.99 inHg , 1015.6 hPa
Summary: Mist
Clouds: Overcast
Visibility: 6 miles , 10 km
Cloud details: Overcast 900 ft
2018/11/16 10:52 KCVG 161052Z 20008KT 6SM BR OVC009 M01/M02 A2999 RMK AO2 SLP159 T10061022 $
 
KILN - Wilmington, Ohio, USA
Distance from station: ENE 33mi, 54km
Updated: 11/16/2018 5:54am
Mist, Overcast
Mist, Overcast
 Wind from SW
Wind: SW 16 mph , 26 km/h
Temperature: 28°F , -2°C
Wind Chill: 16°F , -9°C
Dew Point: 27°F , -3°C
Humidity: 93%
Barometer: 29.97 inHg , 1014.9 hPa
Summary: Mist
Clouds: Overcast
Visibility: 5 miles , 8 km
Cloud details: Overcast 500 ft
2018/11/16 10:54 KILN 161054Z AUTO 22014KT 5SM BR OVC005 M02/M03 A2997 RMK AO2 SLP174 T10171028
KDAY - Dayton, Ohio, USA
Distance from station: NNE 43mi, 70km
Updated: 11/16/2018 5:56am
Overcast
Overcast
 Wind from SW
Wind: SW 15 mph , 24 km/h
Temperature: 30°F , -1°C
Wind Chill: 19°F , -7°C
Dew Point: 28°F , -2°C
Humidity: 93%
Barometer: 29.95 inHg , 1014.2 hPa
Clouds: Overcast
Visibility: 7 miles , 11 km
Cloud details: Overcast 900 ft
2018/11/16 10:56 KDAY 161056Z 22013KT 7SM OVC009 M01/M02 A2995 RMK AO2 SLP152 T10061022
KTZR - Columbus/Bolton, Ohio, USA
Distance from station: ENE 80mi, 128km
Updated: 11/16/2018 6:15am
Mist, Overcast
Mist, Overcast
 Wind from WSW
Wind: WSW 18 mph , 30 km/h
Temperature: 30°F , -1°C
Wind Chill: 18°F , -8°C
Dew Point: 30°F , -1°C
Humidity: 100%
Barometer: 29.96 inHg , 1014.6 hPa
Summary: Mist
Clouds: Overcast
Visibility: 5 miles , 8 km
Cloud details: Overcast 700 ft
2018/11/16 11:15 KTZR 161115Z AUTO 24016KT 5SM BR OVC007 M01/M01 A2996 RMK AO2 T10071015
 
KMGN - Harbor Springs, Michigan, USA
Distance from station: N 417mi, 672km
Updated: 11/16/2018 6:15am
Light snow, Overcast
Light snow, Overcast
 Wind from calm
Wind: Calm
Temperature: 32°F , 0°C
Dew Point: 32°F , 0°C
Humidity: 100%
Barometer: 29.66 inHg , 1004.4 hPa
Summary: Light Snow
Clouds: Overcast
Visibility: 4 miles , 6 km
Cloud details: Overcast 700 ft
2018/11/16 11:15 KMGN 161115Z AUTO 00000KT 4SM -SN OVC007 00/00 A2966 RMK AO2 T00001002
KIND - Indianapolis, Indiana, USA
Distance from station: WNW 99mi, 160km
Updated: 11/16/2018 5:54am
Partly cloudy
Partly cloudy
 Wind from SSW
Wind: SSW 17 mph , 28 km/h
Temperature: 30°F , -1°C
Wind Chill: 18°F , -8°C
Dew Point: 27°F , -3°C
Humidity: 86%
Barometer: 29.92 inHg , 1013.2 hPa
Clouds: Partly cloudy
Visibility: 9 miles , 14 km
Cloud details: Partly cloudy 1500 ft
2018/11/16 10:54 KIND 161054Z 21015KT 9SM SCT015 M01/M03 A2992 RMK AO2 SLP138 T10111028
KLEX - Lexington, Kentucky, USA
Distance from station: S 87mi, 141km
Updated: 11/16/2018 5:54am
Overcast
Overcast
 Wind from SSW
Wind: SSW 10 mph , 17 km/h
Temperature: 30°F , -1°C
Wind Chill: 21°F , -6°C
Dew Point: 27°F , -3°C
Humidity: 86%
Barometer: 30.05 inHg , 1017.6 hPa
Clouds: Overcast
Visibility: 10 miles , 16 km
Cloud details: Overcast 1000 ft
2018/11/16 10:54 KLEX 161054Z 21009KT 10SM OVC010 M01/M03 A3005 RMK AO2 SLP184 T10061028 $
 
KSDF - Louisville, Kentucky, USA
Distance from station: SW 104mi, 167km
Updated: 11/16/2018 6:23am
Partly cloudy
Partly cloudy
 Wind from S
Wind: S 10 mph , 17 km/h
Temperature: 32°F , 0°C
Wind Chill: 24°F , -4°C
Dew Point: 28°F , -2°C
Humidity: 87%
Barometer: 30.04 inHg , 1017.3 hPa
Clouds: Partly cloudy
Visibility: 10 miles , 16 km
Cloud details: Partly cloudy 1100 ft
2018/11/16 11:23 KSDF 161123Z 18009KT 10SM SCT011 00/M02 A3004 RMK AO2 T00001022